sensor_id;sensor_type;location;lat;lon;timestamp;pressure;altitude;pressure_sealevel;temperature;humidity
39405;BME280;25121;51.090;17.038;2023-05-20T00:01:05;101028.50;;;14.54;68.32
39405;BME280;25121;51.090;17.038;2023-05-20T00:02:35;101023.94;;;14.55;68.27
39405;BME280;25121;51.090;17.038;2023-05-20T00:03:57;101028.13;;;14.57;68.33
39405;BME280;25121;51.090;17.038;2023-05-20T00:05:20;101028.97;;;14.58;68.30
39405;BME280;25121;51.090;17.038;2023-05-20T00:06:46;101032.53;;;14.58;68.12
39405;BME280;25121;51.090;17.038;2023-05-20T00:08:09;101024.59;;;14.57;68.23
39405;BME280;25121;51.090;17.038;2023-05-20T00:09:31;101029.84;;;14.58;68.30
39405;BME280;25121;51.090;17.038;2023-05-20T00:10:53;101030.69;;;14.59;68.15
39405;BME280;25121;51.090;17.038;2023-05-20T00:12:14;101034.38;;;14.58;68.21
39405;BME280;25121;51.090;17.038;2023-05-20T00:13:37;101030.69;;;14.59;68.35
39405;BME280;25121;51.090;17.038;2023-05-20T00:15:00;101030.47;;;14.60;68.33
39405;BME280;25121;51.090;17.038;2023-05-20T00:16:21;101030.47;;;14.60;68.05
39405;BME280;25121;51.090;17.038;2023-05-20T00:17:43;101036.44;;;14.56;68.40
39405;BME280;25121;51.090;17.038;2023-05-20T00:19:11;101031.69;;;14.58;68.55
39405;BME280;25121;51.090;17.038;2023-05-20T00:20:38;101021.06;;;14.56;68.45
39405;BME280;25121;51.090;17.038;2023-05-20T00:22:04;101017.16;;;14.51;68.09
39405;BME280;25121;51.090;17.038;2023-05-20T00:23:27;101036.09;;;14.59;68.31
39405;BME280;25121;51.090;17.038;2023-05-20T00:24:50;101032.72;;;14.57;68.39
39405;BME280;25121;51.090;17.038;2023-05-20T00:26:12;101028.13;;;14.57;68.11
39405;BME280;25121;51.090;17.038;2023-05-20T00:27:34;101031.69;;;14.58;68.37
39405;BME280;25121;51.090;17.038;2023-05-20T00:28:56;101030.00;;;14.57;68.29
39405;BME280;25121;51.090;17.038;2023-05-20T00:30:19;101036.09;;;14.59;68.21
39405;BME280;25121;51.090;17.038;2023-05-20T00:31:45;101030.00;;;14.57;68.36
39405;BME280;25121;51.090;17.038;2023-05-20T00:33:09;101035.41;;;14.57;68.33
39405;BME280;25121;51.090;17.038;2023-05-20T00:34:33;101035.25;;;14.58;68.26
39405;BME280;25121;51.090;17.038;2023-05-20T00:35:54;101035.25;;;14.58;68.23
39405;BME280;25121;51.090;17.038;2023-05-20T00:37:26;101032.72;;;14.57;68.22
39405;BME280;25121;51.090;17.038;2023-05-20T00:38:47;101032.53;;;14.58;68.37
39405;BME280;25121;51.090;17.038;2023-05-20T00:40:10;101030.84;;;14.57;68.33
39405;BME280;25121;51.090;17.038;2023-05-20T00:41:44;101031.88;;;14.56;68.37
39405;BME280;25121;51.090;17.038;2023-05-20T00:43:15;101036.44;;;14.56;68.38
39405;BME280;25121;51.090;17.038;2023-05-20T00:44:36;101026.81;;;14.53;68.34
39405;BME280;25121;51.090;17.038;2023-05-20T00:46:03;101032.22;;;14.53;68.30
39405;BME280;25121;51.090;17.038;2023-05-20T00:47:30;101021.38;;;14.53;68.36
39405;BME280;25121;51.090;17.038;2023-05-20T00:48:52;101027.81;;;14.52;68.58
39405;BME280;25121;51.090;17.038;2023-05-20T00:50:16;101031.22;;;14.54;68.24
39405;BME280;25121;51.090;17.038;2023-05-20T00:51:41;101029.50;;;14.53;68.40
39405;BME280;25121;51.090;17.038;2023-05-20T00:53:05;101032.22;;;14.53;68.53
39405;BME280;25121;51.090;17.038;2023-05-20T00:54:27;101034.91;;;14.53;68.44
39405;BME280;25121;51.090;17.038;2023-05-20T00:55:48;101035.09;;;14.52;68.60
39405;BME280;25121;51.090;17.038;2023-05-20T00:57:11;101035.78;;;14.54;68.51
39405;BME280;25121;51.090;17.038;2023-05-20T00:58:37;101033.06;;;14.54;68.39
39405;BME280;25121;51.090;17.038;2023-05-20T01:00:02;101030.50;;;14.52;68.60
39405;BME280;25121;51.090;17.038;2023-05-20T01:01:27;101028.84;;;14.51;68.46
39405;BME280;25121;51.090;17.038;2023-05-20T01:02:50;101023.09;;;14.54;68.51
39405;BME280;25121;51.090;17.038;2023-05-20T01:04:13;101021.38;;;14.53;68.50
39405;BME280;25121;51.090;17.038;2023-05-20T01:05:36;101033.06;;;14.54;68.32
39405;BME280;25121;51.090;17.038;2023-05-20T01:07:03;101027.81;;;14.52;68.38
39405;BME280;25121;51.090;17.038;2023-05-20T01:08:30;101026.97;;;14.52;68.45
39405;BME280;25121;51.090;17.038;2023-05-20T01:09:54;101030.66;;;14.51;68.21
39405;BME280;25121;51.090;17.038;2023-05-20T01:11:22;101031.03;;;14.48;68.46
39405;BME280;25121;51.090;17.038;2023-05-20T01:12:53;101024.63;;;14.49;68.13
39405;BME280;25121;51.090;17.038;2023-05-20T01:14:20;101025.63;;;14.48;68.18
39405;BME280;25121;51.090;17.038;2023-05-20T01:15:54;101023.75;;;14.48;68.42
39405;BME280;25121;51.090;17.038;2023-05-20T01:17:19;101022.25;;;14.46;68.48
39405;BME280;25121;51.090;17.038;2023-05-20T01:18:46;101025.63;;;14.48;68.40
39405;BME280;25121;51.090;17.038;2023-05-20T01:20:12;101016.00;;;14.45;68.25
39405;BME280;25121;51.090;17.038;2023-05-20T01:21:37;101016.00;;;14.45;68.20
39405;BME280;25121;51.090;17.038;2023-05-20T01:23:02;101010.13;;;14.41;68.57
39405;BME280;25121;51.090;17.038;2023-05-20T01:24:24;101013.66;;;14.42;68.21
39405;BME280;25121;51.090;17.038;2023-05-20T01:25:45;101013.66;;;14.42;68.47
39405;BME280;25121;51.090;17.038;2023-05-20T01:27:07;101015.22;;;14.36;68.36
39405;BME280;25121;51.090;17.038;2023-05-20T01:28:29;101017.25;;;14.34;68.55
39405;BME280;25121;51.090;17.038;2023-05-20T01:29:51;101021.47;;;14.37;68.67
39405;BME280;25121;51.090;17.038;2023-05-20T01:31:17;101025.19;;;14.36;68.61
39405;BME280;25121;51.090;17.038;2023-05-20T01:32:43;101023.50;;;14.35;68.87
39405;BME280;25121;51.090;17.038;2023-05-20T01:34:08;101025.38;;;14.34;68.46
39405;BME280;25121;51.090;17.038;2023-05-20T01:35:30;101026.38;;;14.33;68.13
39405;BME280;25121;51.090;17.038;2023-05-20T01:36:56;101028.06;;;14.34;68.53
39405;BME280;25121;51.090;17.038;2023-05-20T01:38:30;101030.94;;;14.33;68.58
39405;BME280;25121;51.090;17.038;2023-05-20T01:39:52;101034.69;;;14.32;68.45
39405;BME280;25121;51.090;17.038;2023-05-20T01:41:13;101035.03;;;14.29;68.47
39405;BME280;25121;51.090;17.038;2023-05-20T01:42:39;101030.63;;;14.28;68.63
39405;BME280;25121;51.090;17.038;2023-05-20T01:44:02;101031.31;;;14.30;68.63
39405;BME280;25121;51.090;17.038;2023-05-20T01:45:25;101024.03;;;14.30;68.74
39405;BME280;25121;51.090;17.038;2023-05-20T01:46:58;101023.72;;;14.25;68.77
39405;BME280;25121;51.090;17.038;2023-05-20T01:48:21;101023.34;;;14.28;68.61
39405;BME280;25121;51.090;17.038;2023-05-20T01:49:44;101025.91;;;14.30;68.75
39405;BME280;25121;51.090;17.038;2023-05-20T01:51:07;101024.88;;;14.31;68.74
39405;BME280;25121;51.090;17.038;2023-05-20T01:52:29;101027.41;;;14.32;68.76
39405;BME280;25121;51.090;17.038;2023-05-20T01:53:52;101018.47;;;14.32;68.64
39405;BME280;25121;51.090;17.038;2023-05-20T01:55:15;101020.13;;;14.33;68.46
39405;BME280;25121;51.090;17.038;2023-05-20T01:56:37;101023.03;;;14.31;68.52
39405;BME280;25121;51.090;17.038;2023-05-20T01:58:00;101022.00;;;14.32;68.58
39405;BME280;25121;51.090;17.038;2023-05-20T01:59:21;101027.56;;;14.31;68.61
39405;BME280;25121;51.090;17.038;2023-05-20T02:00:43;101030.09;;;14.32;68.55
39405;BME280;25121;51.090;17.038;2023-05-20T02:02:06;101028.59;;;14.30;68.38
39405;BME280;25121;51.090;17.038;2023-05-20T02:03:28;101017.44;;;14.33;68.57
39405;BME280;25121;51.090;17.038;2023-05-20T02:04:53;101022.00;;;14.32;68.48
39405;BME280;25121;51.090;17.038;2023-05-20T02:06:15;101019.47;;;14.31;68.33
39405;BME280;25121;51.090;17.038;2023-05-20T02:07:37;101025.91;;;14.30;68.39
39405;BME280;25121;51.090;17.038;2023-05-20T02:09:00;101023.34;;;14.28;68.48
39405;BME280;25121;51.090;17.038;2023-05-20T02:10:23;101026.72;;;14.30;68.71
39405;BME280;25121;51.090;17.038;2023-05-20T02:11:45;101024.88;;;14.31;68.63
39405;BME280;25121;51.090;17.038;2023-05-20T02:13:23;101031.31;;;14.30;68.62
39405;BME280;25121;51.090;17.038;2023-05-20T02:14:48;101030.28;;;14.31;68.52
39405;BME280;25121;51.090;17.038;2023-05-20T02:16:10;101021.53;;;14.29;68.73
39405;BME280;25121;51.090;17.038;2023-05-20T02:17:43;101027.56;;;14.31;68.61
39405;BME280;25121;51.090;17.038;2023-05-20T02:19:15;101031.13;;;14.31;68.70
39405;BME280;25121;51.090;17.038;2023-05-20T02:20:44;101030.47;;;14.29;68.44
39405;BME280;25121;51.090;17.038;2023-05-20T02:22:09;101025.91;;;14.30;68.54
39405;BME280;25121;51.090;17.038;2023-05-20T02:23:33;101031.66;;;14.27;68.40
39405;BME280;25121;51.090;17.038;2023-05-20T02:25:01;101021.69;;;14.27;68.36
39405;BME280;25121;51.090;17.038;2023-05-20T02:26:23;101027.09;;;14.27;68.41
39405;BME280;25121;51.090;17.038;2023-05-20T02:27:45;101024.75;;;14.24;68.21
39405;BME280;25121;51.090;17.038;2023-05-20T02:29:09;101026.63;;;14.24;68.21
39405;BME280;25121;51.090;17.038;2023-05-20T02:30:31;101037.44;;;14.24;68.21
39405;BME280;25121;51.090;17.038;2023-05-20T02:31:53;101039.47;;;14.21;68.38
39405;BME280;25121;51.090;17.038;2023-05-20T02:33:15;101034.06;;;14.21;68.28
39405;BME280;25121;51.090;17.038;2023-05-20T02:34:36;101033.75;;;14.16;68.27
39405;BME280;25121;51.090;17.038;2023-05-20T02:35:59;101041.66;;;14.18;68.52
39405;BME280;25121;51.090;17.038;2023-05-20T02:37:20;101024.13;;;14.14;68.32
39405;BME280;25121;51.090;17.038;2023-05-20T02:38:44;101031.03;;;14.16;68.29
39405;BME280;25121;51.090;17.038;2023-05-20T02:40:09;101032.88;;;14.16;68.50
39405;BME280;25121;51.090;17.038;2023-05-20T02:41:32;101031.38;;;14.13;68.68
39405;BME280;25121;51.090;17.038;2023-05-20T02:43:08;101014.38;;;14.05;68.54
39405;BME280;25121;51.090;17.038;2023-05-20T02:44:30;101023.63;;;14.10;68.41
39405;BME280;25121;51.090;17.038;2023-05-20T02:45:52;101027.00;;;14.12;68.61
39405;BME280;25121;51.090;17.038;2023-05-20T02:47:14;101024.28;;;14.12;68.94
39405;BME280;25121;51.090;17.038;2023-05-20T02:48:36;101038.47;;;14.14;68.92
39405;BME280;25121;51.090;17.038;2023-05-20T02:49:59;101024.13;;;14.14;68.86
39405;BME280;25121;51.090;17.038;2023-05-20T02:51:22;101031.03;;;14.16;68.89
39405;BME280;25121;51.090;17.038;2023-05-20T02:52:45;101030.00;;;14.17;68.93
39405;BME280;25121;51.090;17.038;2023-05-20T02:54:06;101021.59;;;14.12;69.22
39405;BME280;25121;51.090;17.038;2023-05-20T02:55:33;101022.25;;;14.14;69.17
39405;BME280;25121;51.090;17.038;2023-05-20T02:57:06;101019.72;;;14.13;68.95
39405;BME280;25121;51.090;17.038;2023-05-20T02:58:30;101026.47;;;14.17;68.93
39405;BME280;25121;51.090;17.038;2023-05-20T02:59:54;101023.78;;;14.17;69.16
39405;BME280;25121;51.090;17.038;2023-05-20T03:01:15;101021.75;;;14.19;69.14
39405;BME280;25121;51.090;17.038;2023-05-20T03:02:38;101022.56;;;14.19;69.31
39405;BME280;25121;51.090;17.038;2023-05-20T03:04:00;101025.13;;;14.21;69.30
39405;BME280;25121;51.090;17.038;2023-05-20T03:05:23;101024.09;;;14.22;69.20
39405;BME280;25121;51.090;17.038;2023-05-20T03:06:46;101019.50;;;14.22;69.09
39405;BME280;25121;51.090;17.038;2023-05-20T03:08:10;101028.47;;;14.23;69.14
39405;BME280;25121;51.090;17.038;2023-05-20T03:09:34;101019.50;;;14.22;68.84
39405;BME280;25121;51.090;17.038;2023-05-20T03:10:58;101015.97;;;14.22;68.93
39405;BME280;25121;51.090;17.038;2023-05-20T03:12:20;101020.19;;;14.25;68.93
39405;BME280;25121;51.090;17.038;2023-05-20T03:13:45;101021.84;;;14.26;68.90
39405;BME280;25121;51.090;17.038;2023-05-20T03:15:10;101014.78;;;14.25;68.97
39405;BME280;25121;51.090;17.038;2023-05-20T03:16:33;101008.19;;;14.27;69.02
39405;BME280;25121;51.090;17.038;2023-05-20T03:17:56;101014.41;;;14.28;68.72
39405;BME280;25121;51.090;17.038;2023-05-20T03:19:17;101019.00;;;14.27;68.69
39405;BME280;25121;51.090;17.038;2023-05-20T03:21:08;101003.28;;;14.22;68.83
39405;BME280;25121;51.090;17.038;2023-05-20T03:22:31;101012.53;;;14.28;68.77
39405;BME280;25121;51.090;17.038;2023-05-20T03:24:02;101009.00;;;14.28;68.95
39405;BME280;25121;51.090;17.038;2023-05-20T03:25:25;101006.66;;;14.25;68.76
39405;BME280;25121;51.090;17.038;2023-05-20T03:26:48;101005.00;;;14.24;69.03
39405;BME280;25121;51.090;17.038;2023-05-20T03:28:11;101010.22;;;14.25;68.98
39405;BME280;25121;51.090;17.038;2023-05-20T03:29:34;101010.56;;;14.22;68.77
39405;BME280;25121;51.090;17.038;2023-05-20T03:30:57;101016.94;;;14.29;68.71
39405;BME280;25121;51.090;17.038;2023-05-20T03:32:36;101024.22;;;14.29;69.02
39405;BME280;25121;51.090;17.038;2023-05-20T03:34:06;101016.44;;;14.26;68.95
39405;BME280;25121;51.090;17.038;2023-05-20T03:35:29;101016.75;;;14.31;68.81
39405;BME280;25121;51.090;17.038;2023-05-20T03:36:51;101013.09;;;14.24;68.70
39405;BME280;25121;51.090;17.038;2023-05-20T03:38:16;101018.47;;;14.32;68.77
39405;BME280;25121;51.090;17.038;2023-05-20T03:39:39;101014.41;;;14.28;68.71
39405;BME280;25121;51.090;17.038;2023-05-20T03:41:02;101012.22;;;14.31;68.83
39405;BME280;25121;51.090;17.038;2023-05-20T03:42:37;101021.31;;;14.30;68.79
39405;BME280;25121;51.090;17.038;2023-05-20T03:44:12;101017.44;;;14.33;68.65
39405;BME280;25121;51.090;17.038;2023-05-20T03:45:37;101034.16;;;14.36;68.83
39405;BME280;25121;51.090;17.038;2023-05-20T03:46:59;101031.44;;;14.36;68.59
39405;BME280;25121;51.090;17.038;2023-05-20T03:48:23;101029.59;;;14.37;68.62
39405;BME280;25121;51.090;17.038;2023-05-20T03:50:02;101023.88;;;14.32;68.70
39405;BME280;25121;51.090;17.038;2023-05-20T03:51:24;101032.97;;;14.39;68.76
39405;BME280;25121;51.090;17.038;2023-05-20T03:52:54;101028.38;;;14.39;68.81
39405;BME280;25121;51.090;17.038;2023-05-20T03:54:17;101044.44;;;14.41;68.75
39405;BME280;25121;51.090;17.038;2023-05-20T03:55:42;101029.22;;;14.40;68.69
39405;BME280;25121;51.090;17.038;2023-05-20T03:57:18;101036.13;;;14.42;68.64
39405;BME280;25121;51.090;17.038;2023-05-20T03:58:52;101026.88;;;14.37;68.74
39405;BME280;25121;51.090;17.038;2023-05-20T04:00:15;101027.56;;;14.39;68.91
39405;BME280;25121;51.090;17.038;2023-05-20T04:01:40;101037.63;;;14.45;68.68
39405;BME280;25121;51.090;17.038;2023-05-20T04:03:15;101033.63;;;14.41;68.77
39405;BME280;25121;51.090;17.038;2023-05-20T04:04:39;101032.91;;;14.47;68.55
39405;BME280;25121;51.090;17.038;2023-05-20T04:06:06;101045.22;;;14.50;68.75
39405;BME280;25121;51.090;17.038;2023-05-20T04:07:29;101041.50;;;14.51;68.83
39405;BME280;25121;51.090;17.038;2023-05-20T04:08:54;101034.78;;;14.47;68.47
39405;BME280;25121;51.090;17.038;2023-05-20T04:10:18;101041.31;;;14.52;68.27
39405;BME280;25121;51.090;17.038;2023-05-20T04:11:43;101041.69;;;14.49;68.52
39405;BME280;25121;51.090;17.038;2023-05-20T04:13:05;101052.97;;;14.53;68.33
39405;BME280;25121;51.090;17.038;2023-05-20T04:14:37;101058.59;;;14.51;68.40
39405;BME280;25121;51.090;17.038;2023-05-20T04:16:13;101047.94;;;14.50;68.48
39405;BME280;25121;51.090;17.038;2023-05-20T04:17:36;101052.13;;;14.52;68.43
39405;BME280;25121;51.090;17.038;2023-05-20T04:19:03;101057.91;;;14.49;68.44
39405;BME280;25121;51.090;17.038;2023-05-20T04:20:35;101056.88;;;14.50;68.51
39405;BME280;25121;51.090;17.038;2023-05-20T04:21:58;101053.69;;;14.47;68.40
39405;BME280;25121;51.090;17.038;2023-05-20T04:23:22;101051.31;;;14.52;68.31
39405;BME280;25121;51.090;17.038;2023-05-20T04:24:43;101046.44;;;14.47;68.39
39405;BME280;25121;51.090;17.038;2023-05-20T04:26:08;101050.63;;;14.50;68.25
39405;BME280;25121;51.090;17.038;2023-05-20T04:27:30;101057.56;;;14.52;68.20
39405;BME280;25121;51.090;17.038;2023-05-20T04:28:55;101056.03;;;14.50;68.23
39405;BME280;25121;51.090;17.038;2023-05-20T04:30:21;101059.41;;;14.52;68.21
39405;BME280;25121;51.090;17.038;2023-05-20T04:31:52;101051.47;;;14.50;68.13
39405;BME280;25121;51.090;17.038;2023-05-20T04:33:14;101041.84;;;14.48;68.27
39405;BME280;25121;51.090;17.038;2023-05-20T04:34:46;101048.59;;;14.52;68.25
39405;BME280;25121;51.090;17.038;2023-05-20T04:36:27;101046.59;;;14.54;68.32
39405;BME280;25121;51.090;17.038;2023-05-20T04:37:50;101045.72;;;14.53;68.34
39405;BME280;25121;51.090;17.038;2023-05-20T04:39:15;101042.03;;;14.54;68.43
39405;BME280;25121;51.090;17.038;2023-05-20T04:40:46;101040.50;;;14.52;68.53
39405;BME280;25121;51.090;17.038;2023-05-20T04:42:09;101043.53;;;14.57;68.20
39405;BME280;25121;51.090;17.038;2023-05-20T04:43:37;101044.00;;;14.60;68.25
39405;BME280;25121;51.090;17.038;2023-05-20T04:45:00;101049.91;;;14.64;68.21
39405;BME280;25121;51.090;17.038;2023-05-20T04:46:26;101049.38;;;14.69;68.07
39405;BME280;25121;51.090;17.038;2023-05-20T04:47:52;101040.41;;;14.68;68.01
39405;BME280;25121;51.090;17.038;2023-05-20T04:49:16;101044.13;;;14.67;67.83
39405;BME280;25121;51.090;17.038;2023-05-20T04:50:38;101044.97;;;14.68;67.87
39405;BME280;25121;51.090;17.038;2023-05-20T04:52:01;101041.91;;;14.71;67.84
39405;BME280;25121;51.090;17.038;2023-05-20T04:53:24;101051.34;;;14.75;67.80
39405;BME280;25121;51.090;17.038;2023-05-20T04:54:55;101044.06;;;14.75;67.55
39405;BME280;25121;51.090;17.038;2023-05-20T04:56:19;101042.53;;;14.81;67.76
39405;BME280;25121;51.090;17.038;2023-05-20T04:57:48;101038.44;;;14.85;67.97
39405;BME280;25121;51.090;17.038;2023-05-20T04:59:13;101041.44;;;14.90;67.70
39405;BME280;25121;51.090;17.038;2023-05-20T05:00:34;101039.03;;;14.95;67.55
39405;BME280;25121;51.090;17.038;2023-05-20T05:01:59;101037.66;;;14.99;67.59
39405;BME280;25121;51.090;17.038;2023-05-20T05:03:24;101042.53;;;15.04;67.37
39405;BME280;25121;51.090;17.038;2023-05-20T05:04:45;101034.88;;;15.07;67.25
39405;BME280;25121;51.090;17.038;2023-05-20T05:06:13;101029.00;;;15.04;67.10
39405;BME280;25121;51.090;17.038;2023-05-20T05:07:41;101032.94;;;15.16;66.96
39405;BME280;25121;51.090;17.038;2023-05-20T05:09:09;101034.44;;;15.19;66.79
39405;BME280;25121;51.090;17.038;2023-05-20T05:10:34;101036.63;;;15.23;66.65
39405;BME280;25121;51.090;17.038;2023-05-20T05:11:57;101038.78;;;15.28;66.36
39405;BME280;25121;51.090;17.038;2023-05-20T05:13:18;101033.38;;;15.28;66.34
39405;BME280;25121;51.090;17.038;2023-05-20T05:14:41;101038.56;;;15.29;66.30
39405;BME280;25121;51.090;17.038;2023-05-20T05:16:03;101027.94;;;15.28;66.27
39405;BME280;25121;51.090;17.038;2023-05-20T05:17:27;101038.19;;;15.33;66.09
39405;BME280;25121;51.090;17.038;2023-05-20T05:18:51;101027.75;;;15.29;66.10
39405;BME280;25121;51.090;17.038;2023-05-20T05:20:31;101030.28;;;15.31;66.02
39405;BME280;25121;51.090;17.038;2023-05-20T05:22:06;101035.31;;;15.34;65.99
39405;BME280;25121;51.090;17.038;2023-05-20T05:23:29;101046.31;;;15.33;65.99
39405;BME280;25121;51.090;17.038;2023-05-20T05:24:53;101051.56;;;15.34;65.91
39405;BME280;25121;51.090;17.038;2023-05-20T05:26:15;101042.25;;;15.37;65.82
39405;BME280;25121;51.090;17.038;2023-05-20T05:27:38;101046.81;;;15.36;65.96
39405;BME280;25121;51.090;17.038;2023-05-20T05:28:59;101044.66;;;15.32;65.84
39405;BME280;25121;51.090;17.038;2023-05-20T05:30:22;101048.88;;;15.34;65.94
39405;BME280;25121;51.090;17.038;2023-05-20T05:31:44;101052.59;;;15.33;66.15
39405;BME280;25121;51.090;17.038;2023-05-20T05:33:08;101042.78;;;15.32;65.93
39405;BME280;25121;51.090;17.038;2023-05-20T05:34:29;101049.91;;;15.33;65.81
39405;BME280;25121;51.090;17.038;2023-05-20T05:36:00;101053.44;;;15.34;65.82
39405;BME280;25121;51.090;17.038;2023-05-20T05:37:22;101057.38;;;15.31;65.79
39405;BME280;25121;51.090;17.038;2023-05-20T05:38:44;101054.66;;;15.31;65.70
39405;BME280;25121;51.090;17.038;2023-05-20T05:40:16;101056.69;;;15.29;65.48
39405;BME280;25121;51.090;17.038;2023-05-20T05:41:40;101044.75;;;15.23;65.69
39405;BME280;25121;51.090;17.038;2023-05-20T05:43:02;101048.41;;;15.31;65.42
39405;BME280;25121;51.090;17.038;2023-05-20T05:44:25;101047.75;;;15.28;65.54
39405;BME280;25121;51.090;17.038;2023-05-20T05:45:48;101053.63;;;15.32;65.49
39405;BME280;25121;51.090;17.038;2023-05-20T05:47:11;101053.63;;;15.32;65.53
39405;BME280;25121;51.090;17.038;2023-05-20T05:48:40;101043.31;;;15.27;65.39
39405;BME280;25121;51.090;17.038;2023-05-20T05:50:26;101049.91;;;15.33;65.57
39405;BME280;25121;51.090;17.038;2023-05-20T05:51:49;101048.03;;;15.34;65.35
39405;BME280;25121;51.090;17.038;2023-05-20T05:53:15;101045.13;;;15.35;65.50
39405;BME280;25121;51.090;17.038;2023-05-20T05:54:45;101054.84;;;15.44;65.22
39405;BME280;25121;51.090;17.038;2023-05-20T05:56:08;101050.78;;;15.48;65.03
39405;BME280;25121;51.090;17.038;2023-05-20T05:57:29;101059.91;;;15.47;65.14
39405;BME280;25121;51.090;17.038;2023-05-20T05:58:54;101053.09;;;15.51;65.18
39405;BME280;25121;51.090;17.038;2023-05-20T06:00:17;101056.47;;;15.54;64.98
39405;BME280;25121;51.090;17.038;2023-05-20T06:01:41;101056.09;;;15.57;64.87
39405;BME280;25121;51.090;17.038;2023-05-20T06:03:04;101055.44;;;15.55;64.73
39405;BME280;25121;51.090;17.038;2023-05-20T06:04:43;101068.81;;;15.56;64.66
39405;BME280;25121;51.090;17.038;2023-05-20T06:06:10;101061.34;;;15.58;64.66
39405;BME280;25121;51.090;17.038;2023-05-20T06:07:38;101054.59;;;15.54;64.77
39405;BME280;25121;51.090;17.038;2023-05-20T06:09:06;101056.28;;;15.55;64.74
39405;BME280;25121;51.090;17.038;2023-05-20T06:10:31;101056.47;;;15.54;64.65
39405;BME280;25121;51.090;17.038;2023-05-20T06:11:56;101046.66;;;15.52;64.77
39405;BME280;25121;51.090;17.038;2023-05-20T06:13:18;101057.69;;;15.51;65.10
39405;BME280;25121;51.090;17.038;2023-05-20T06:14:53;101047.50;;;15.53;64.97
39405;BME280;25121;51.090;17.038;2023-05-20T06:16:23;101044.97;;;15.51;65.26
39405;BME280;25121;51.090;17.038;2023-05-20T06:17:48;101054.44;;;15.56;64.96
39405;BME280;25121;51.090;17.038;2023-05-20T06:19:14;101057.41;;;15.61;64.67
39405;BME280;25121;51.090;17.038;2023-05-20T06:22:24;101056.88;;;15.65;64.64
39405;BME280;25121;51.090;17.038;2023-05-20T06:23:48;101062.41;;;15.72;64.38
39405;BME280;25121;51.090;17.038;2023-05-20T06:25:12;101061.97;;;15.83;64.30
39405;BME280;25121;51.090;17.038;2023-05-20T06:26:36;101055.13;;;15.87;64.26
39405;BME280;25121;51.090;17.038;2023-05-20T06:27:58;101052.06;;;15.90;64.15
39405;BME280;25121;51.090;17.038;2023-05-20T06:29:22;101056.53;;;15.98;63.98
39405;BME280;25121;51.090;17.038;2023-05-20T06:30:44;101055.50;;;15.99;63.98
39405;BME280;25121;51.090;17.038;2023-05-20T06:35:42;101059.31;;;16.05;63.78
39405;BME280;25121;51.090;17.038;2023-05-20T06:37:05;101050.19;;;16.06;63.59
39405;BME280;25121;51.090;17.038;2023-05-20T06:38:27;101053.34;;;16.09;63.66
39405;BME280;25121;51.090;17.038;2023-05-20T06:39:51;101052.78;;;16.14;63.58
39405;BME280;25121;51.090;17.038;2023-05-20T06:41:25;101058.47;;;16.19;63.44
39405;BME280;25121;51.090;17.038;2023-05-20T06:42:51;101062.69;;;16.22;63.25
39405;BME280;25121;51.090;17.038;2023-05-20T06:44:38;101063.50;;;16.22;63.06
39405;BME280;25121;51.090;17.038;2023-05-20T06:46:14;101057.63;;;16.19;63.27
39405;BME280;25121;51.090;17.038;2023-05-20T06:47:47;101068.03;;;16.30;63.05
39405;BME280;25121;51.090;17.038;2023-05-20T06:49:09;101072.41;;;16.31;62.80
39405;BME280;25121;51.090;17.038;2023-05-20T06:50:34;101066.81;;;16.32;62.69
39405;BME280;25121;51.090;17.038;2023-05-20T06:52:14;101072.22;;;16.32;62.41
39405;BME280;25121;51.090;17.038;2023-05-20T06:53:38;101057.53;;;16.27;62.68
39405;BME280;25121;51.090;17.038;2023-05-20T06:55:00;101065.09;;;16.31;62.58
39405;BME280;25121;51.090;17.038;2023-05-20T06:56:47;101065.09;;;16.31;62.65
39405;BME280;25121;51.090;17.038;2023-05-20T06:58:10;101070.34;;;16.33;62.54
39405;BME280;25121;51.090;17.038;2023-05-20T06:59:33;101062.22;;;16.33;62.59
39405;BME280;25121;51.090;17.038;2023-05-20T07:00:58;101063.97;;;16.41;62.46
39405;BME280;25121;51.090;17.038;2023-05-20T07:02:20;101067.78;;;16.46;62.46
39405;BME280;25121;51.090;17.038;2023-05-20T07:03:45;101067.63;;;16.48;62.27
39405;BME280;25121;51.090;17.038;2023-05-20T07:05:11;101064.69;;;16.49;62.09
39405;BME280;25121;51.090;17.038;2023-05-20T07:06:44;101060.41;;;16.55;61.95
39405;BME280;25121;51.090;17.038;2023-05-20T07:08:09;101060.66;;;16.60;61.84
39405;BME280;25121;51.090;17.038;2023-05-20T07:09:33;101061.94;;;16.64;61.81
39405;BME280;25121;51.090;17.038;2023-05-20T07:10:57;101057.81;;;16.68;61.60
39405;BME280;25121;51.090;17.038;2023-05-20T07:12:22;101062.50;;;16.74;61.39
39405;BME280;25121;51.090;17.038;2023-05-20T07:13:47;101060.91;;;16.80;60.97
39405;BME280;25121;51.090;17.038;2023-05-20T07:15:10;101060.97;;;16.87;60.98
39405;BME280;25121;51.090;17.038;2023-05-20T07:16:36;101059.38;;;16.92;60.54
39405;BME280;25121;51.090;17.038;2023-05-20T07:18:10;101052.72;;;16.95;60.47
39405;BME280;25121;51.090;17.038;2023-05-20T07:19:31;101060.72;;;17.03;60.36
39405;BME280;25121;51.090;17.038;2023-05-20T07:20:54;101064.34;;;17.10;60.12
39405;BME280;25121;51.090;17.038;2023-05-20T07:22:29;101062.31;;;17.19;59.98
39405;BME280;25121;51.090;17.038;2023-05-20T07:24:08;101056.31;;;17.23;59.50
39405;BME280;25121;51.090;17.038;2023-05-20T07:25:31;101054.69;;;17.29;59.51
39405;BME280;25121;51.090;17.038;2023-05-20T07:26:54;101057.44;;;17.36;59.18